sensor_id;sensor_type;location;lat;lon;timestamp;pressure;altitude;pressure_sealevel;temperature;humidity
32243;BME280;18731;42.830;24.390;2023-05-13T02:59:46;94903.53;;;8.55;78.89
32243;BME280;18731;42.830;24.390;2023-05-13T03:02:12;94739.09;;;7.50;78.66
32243;BME280;18731;42.830;24.390;2023-05-13T03:04:37;94740.06;;;7.54;78.77
32243;BME280;18731;42.830;24.390;2023-05-13T03:07:05;94846.72;;;8.28;78.28
32243;BME280;18731;42.830;24.390;2023-05-13T03:09:32;94752.00;;;7.65;78.12
32243;BME280;18731;42.830;24.390;2023-05-13T03:11:59;94858.22;;;8.37;78.37
32243;BME280;18731;42.830;24.390;2023-05-13T03:14:25;94714.81;;;7.43;78.51
32243;BME280;18731;42.830;24.390;2023-05-13T03:16:51;94692.00;;;7.20;78.90
32243;BME280;18731;42.830;24.390;2023-05-13T03:19:16;94801.91;;;7.91;78.75
32243;BME280;18731;42.830;24.390;2023-05-13T03:21:42;94839.22;;;8.08;78.70
32243;BME280;18731;42.830;24.390;2023-05-13T03:24:08;94852.94;;;8.24;79.17
32243;BME280;18731;42.830;24.390;2023-05-13T03:26:33;94862.25;;;8.35;79.56
32243;BME280;18731;42.830;24.390;2023-05-13T03:28:59;94825.47;;;8.06;80.10
32243;BME280;18731;42.830;24.390;2023-05-13T03:31:26;94892.75;;;8.60;79.72
32243;BME280;18731;42.830;24.390;2023-05-13T03:33:52;94855.25;;;8.39;78.76
32243;BME280;18731;42.830;24.390;2023-05-13T03:36:18;94942.59;;;8.99;78.42
32243;BME280;18731;42.830;24.390;2023-05-13T03:38:47;94758.94;;;7.75;77.93
32243;BME280;18731;42.830;24.390;2023-05-13T03:41:12;94901.16;;;8.76;77.98
32243;BME280;18731;42.830;24.390;2023-05-13T03:43:42;94761.06;;;7.87;78.25
32243;BME280;18731;42.830;24.390;2023-05-13T03:46:08;94752.19;;;7.91;78.19
32243;BME280;18731;42.830;24.390;2023-05-13T03:48:33;94838.06;;;8.45;78.13
32243;BME280;18731;42.830;24.390;2023-05-13T03:51:00;94897.13;;;8.87;77.91
32243;BME280;18731;42.830;24.390;2023-05-13T03:53:25;94803.53;;;8.31;77.57
32243;BME280;18731;42.830;24.390;2023-05-13T03:55:51;94910.81;;;9.02;78.12
32243;BME280;18731;42.830;24.390;2023-05-13T03:58:17;94802.53;;;8.19;78.14
32243;BME280;18731;42.830;24.390;2023-05-13T04:00:43;94978.81;;;9.09;79.18
32243;BME280;18731;42.830;24.390;2023-05-13T04:03:13;94832.78;;;8.00;79.76
32243;BME280;18731;42.830;24.390;2023-05-13T04:05:41;94984.06;;;8.91;80.12
32243;BME280;18731;42.830;24.390;2023-05-13T04:08:06;94853.91;;;8.05;79.92
32243;BME280;18731;42.830;24.390;2023-05-13T04:10:33;94780.00;;;7.49;80.30
32243;BME280;18731;42.830;24.390;2023-05-13T04:12:58;94859.72;;;8.07;80.72
32243;BME280;18731;42.830;24.390;2023-05-13T04:15:24;94799.59;;;7.75;80.79
32243;BME280;18731;42.830;24.390;2023-05-13T04:17:50;94877.06;;;8.27;81.08
32243;BME280;18731;42.830;24.390;2023-05-13T04:20:17;94756.09;;;7.71;80.36
32243;BME280;18731;42.830;24.390;2023-05-13T04:22:42;94818.44;;;8.10;79.85
32243;BME280;18731;42.830;24.390;2023-05-13T04:25:08;94815.19;;;8.13;79.30
32243;BME280;18731;42.830;24.390;2023-05-13T04:27:34;94861.28;;;8.53;78.81
32243;BME280;18731;42.830;24.390;2023-05-13T04:30:00;94872.16;;;8.74;78.67
32243;BME280;18731;42.830;24.390;2023-05-13T04:32:26;94933.94;;;9.24;78.24
32243;BME280;18731;42.830;24.390;2023-05-13T04:34:52;94846.97;;;8.72;77.36
32243;BME280;18731;42.830;24.390;2023-05-13T04:37:18;94889.75;;;9.23;76.98
32243;BME280;18731;42.830;24.390;2023-05-13T04:39:45;94923.66;;;9.49;75.46
32243;BME280;18731;42.830;24.390;2023-05-13T04:42:12;94880.03;;;9.27;75.03
32243;BME280;18731;42.830;24.390;2023-05-13T04:44:38;94994.03;;;10.05;73.49
32243;BME280;18731;42.830;24.390;2023-05-13T04:47:04;94943.00;;;9.72;72.85
32243;BME280;18731;42.830;24.390;2023-05-13T04:49:30;94916.31;;;9.54;73.13
32243;BME280;18731;42.830;24.390;2023-05-13T04:51:56;94881.47;;;9.42;72.03
32243;BME280;18731;42.830;24.390;2023-05-13T04:54:23;94892.16;;;9.59;72.04
32243;BME280;18731;42.830;24.390;2023-05-13T04:56:49;94843.88;;;9.52;72.76
32243;BME280;18731;42.830;24.390;2023-05-13T04:59:16;94952.50;;;10.29;73.41
32243;BME280;18731;42.830;24.390;2023-05-13T05:01:42;94873.53;;;9.85;72.11
32243;BME280;18731;42.830;24.390;2023-05-13T05:04:08;94876.84;;;10.08;70.19
32243;BME280;18731;42.830;24.390;2023-05-13T05:06:34;94969.75;;;10.75;67.60
32243;BME280;18731;42.830;24.390;2023-05-13T05:09:00;94819.28;;;9.90;67.09
32243;BME280;18731;42.830;24.390;2023-05-13T05:11:25;94908.53;;;10.53;66.43
32243;BME280;18731;42.830;24.390;2023-05-13T05:13:51;94966.25;;;11.01;66.17
32243;BME280;18731;42.830;24.390;2023-05-13T05:18:52;94873.97;;;10.65;65.72
32243;BME280;18731;42.830;24.390;2023-05-13T05:21:18;94847.00;;;10.58;65.97
32243;BME280;18731;42.830;24.390;2023-05-13T05:23:44;94922.31;;;11.27;64.57
32243;BME280;18731;42.830;24.390;2023-05-13T05:26:10;94964.41;;;11.69;63.57
32243;BME280;18731;42.830;24.390;2023-05-13T05:28:35;94931.34;;;11.73;63.06
32243;BME280;18731;42.830;24.390;2023-05-13T05:31:03;94905.06;;;11.75;62.66
32243;BME280;18731;42.830;24.390;2023-05-13T05:33:29;94983.94;;;12.19;60.85
32243;BME280;18731;42.830;24.390;2023-05-13T05:35:55;95007.28;;;12.40;59.71
32243;BME280;18731;42.830;24.390;2023-05-13T05:38:20;95012.56;;;12.48;59.89
32243;BME280;18731;42.830;24.390;2023-05-13T05:40:49;95020.59;;;12.69;60.74
32243;BME280;18731;42.830;24.390;2023-05-13T05:43:15;95020.13;;;12.67;61.09
32243;BME280;18731;42.830;24.390;2023-05-13T05:45:42;95018.50;;;12.75;60.42
32243;BME280;18731;42.830;24.390;2023-05-13T05:48:08;95011.94;;;12.84;61.23
32243;BME280;18731;42.830;24.390;2023-05-13T05:50:34;94969.00;;;12.60;59.99
32243;BME280;18731;42.830;24.390;2023-05-13T05:53:03;95008.75;;;12.91;57.86
32243;BME280;18731;42.830;24.390;2023-05-13T05:55:31;95013.84;;;12.84;58.79
32243;BME280;18731;42.830;24.390;2023-05-13T05:57:57;95011.88;;;12.93;59.14
32243;BME280;18731;42.830;24.390;2023-05-13T06:00:28;95016.25;;;12.98;59.47
32243;BME280;18731;42.830;24.390;2023-05-13T06:02:54;94976.75;;;12.74;59.38
32243;BME280;18731;42.830;24.390;2023-05-13T06:05:21;94995.13;;;12.96;58.91
32243;BME280;18731;42.830;24.390;2023-05-13T06:07:47;95004.03;;;13.09;58.26
32243;BME280;18731;42.830;24.390;2023-05-13T06:10:13;94997.34;;;13.15;58.17
32243;BME280;18731;42.830;24.390;2023-05-13T06:12:39;95004.78;;;13.30;58.27
32243;BME280;18731;42.830;24.390;2023-05-13T06:15:09;95003.88;;;13.26;57.39
32243;BME280;18731;42.830;24.390;2023-05-13T06:17:36;95006.47;;;13.35;56.42
32243;BME280;18731;42.830;24.390;2023-05-13T06:20:02;94997.75;;;13.38;56.47
32243;BME280;18731;42.830;24.390;2023-05-13T06:22:28;95005.34;;;13.36;55.36
32243;BME280;18731;42.830;24.390;2023-05-13T06:24:54;95000.56;;;13.41;55.89
32243;BME280;18731;42.830;24.390;2023-05-13T06:27:20;95009.59;;;13.37;56.61
32243;BME280;18731;42.830;24.390;2023-05-13T06:29:46;95009.72;;;13.40;56.85
32243;BME280;18731;42.830;24.390;2023-05-13T06:32:13;95006.63;;;13.63;57.78
32243;BME280;18731;42.830;24.390;2023-05-13T06:34:39;94982.13;;;13.64;58.64
32243;BME280;18731;42.830;24.390;2023-05-13T06:37:06;95025.19;;;14.04;58.89
32243;BME280;18731;42.830;24.390;2023-05-13T06:39:32;95016.91;;;14.22;56.59
32243;BME280;18731;42.830;24.390;2023-05-13T06:41:58;94998.97;;;14.50;59.21
32243;BME280;18731;42.830;24.390;2023-05-13T06:44:24;95006.47;;;14.85;54.94
32243;BME280;18731;42.830;24.390;2023-05-13T06:46:49;94955.16;;;14.62;52.33
32243;BME280;18731;42.830;24.390;2023-05-13T06:49:15;94987.91;;;14.79;53.42
32243;BME280;18731;42.830;24.390;2023-05-13T06:51:41;94996.41;;;14.82;52.37
32243;BME280;18731;42.830;24.390;2023-05-13T06:54:07;94995.78;;;14.72;51.63
32243;BME280;18731;42.830;24.390;2023-05-13T06:56:32;94999.72;;;14.91;53.11
32243;BME280;18731;42.830;24.390;2023-05-13T06:58:59;95003.28;;;14.95;51.18
32243;BME280;18731;42.830;24.390;2023-05-13T07:01:24;94995.91;;;14.92;51.18
32243;BME280;18731;42.830;24.390;2023-05-13T07:03:50;95001.00;;;14.81;49.34
32243;BME280;18731;42.830;24.390;2023-05-13T07:06:16;94997.53;;;14.80;51.10
32243;BME280;18731;42.830;24.390;2023-05-13T07:08:42;95010.19;;;14.80;50.81
32243;BME280;18731;42.830;24.390;2023-05-13T07:11:07;95007.94;;;14.82;51.24
32243;BME280;18731;42.830;24.390;2023-05-13T07:13:33;95008.53;;;14.75;50.98
32243;BME280;18731;42.830;24.390;2023-05-13T07:16:00;95012.28;;;14.87;50.70
32243;BME280;18731;42.830;24.390;2023-05-13T07:18:27;94995.28;;;14.83;52.46
32243;BME280;18731;42.830;24.390;2023-05-13T07:20:54;94998.84;;;14.87;51.45
32243;BME280;18731;42.830;24.390;2023-05-13T07:23:21;94997.56;;;14.96;51.78
32243;BME280;18731;42.830;24.390;2023-05-13T07:25:47;94985.22;;;15.23;53.94
32243;BME280;18731;42.830;24.390;2023-05-13T07:28:14;94997.81;;;15.63;51.01
32243;BME280;18731;42.830;24.390;2023-05-13T07:30:40;94926.25;;;15.30;49.62
32243;BME280;18731;42.830;24.390;2023-05-13T07:33:08;94979.50;;;15.84;49.28
32243;BME280;18731;42.830;24.390;2023-05-13T07:35:34;94987.22;;;16.01;47.29
32243;BME280;18731;42.830;24.390;2023-05-13T07:38:00;94974.69;;;16.09;46.99
32243;BME280;18731;42.830;24.390;2023-05-13T07:40:25;94986.44;;;16.71;49.60
32243;BME280;18731;42.830;24.390;2023-05-13T07:42:51;94950.19;;;16.88;45.58
32243;BME280;18731;42.830;24.390;2023-05-13T07:45:17;94993.34;;;17.30;45.31
32243;BME280;18731;42.830;24.390;2023-05-13T07:47:42;94988.31;;;17.51;46.82
32243;BME280;18731;42.830;24.390;2023-05-13T07:50:08;94985.69;;;17.55;45.20
32243;BME280;18731;42.830;24.390;2023-05-13T07:52:34;94977.66;;;17.81;46.87
32243;BME280;18731;42.830;24.390;2023-05-13T07:55:00;94988.22;;;17.90;45.68
32243;BME280;18731;42.830;24.390;2023-05-13T07:57:25;94996.13;;;18.02;46.26
32243;BME280;18731;42.830;24.390;2023-05-13T07:59:51;94980.06;;;18.13;45.27
32243;BME280;18731;42.830;24.390;2023-05-13T08:02:18;94981.41;;;18.22;46.11
32243;BME280;18731;42.830;24.390;2023-05-13T08:04:44;95000.31;;;18.22;43.97
32243;BME280;18731;42.830;24.390;2023-05-13T08:07:10;94995.53;;;17.89;44.86
32243;BME280;18731;42.830;24.390;2023-05-13T08:09:36;94992.81;;;18.12;44.52
32243;BME280;18731;42.830;24.390;2023-05-13T08:12:02;95009.16;;;18.46;47.63
32243;BME280;18731;42.830;24.390;2023-05-13T08:14:28;95011.69;;;18.35;45.88
32243;BME280;18731;42.830;24.390;2023-05-13T08:16:54;95003.47;;;17.79;46.04
32243;BME280;18731;42.830;24.390;2023-05-13T08:19:19;95011.38;;;17.68;48.27
32243;BME280;18731;42.830;24.390;2023-05-13T08:21:45;95013.91;;;17.38;47.54
32243;BME280;18731;42.830;24.390;2023-05-13T08:24:11;95008.16;;;17.82;46.00
32243;BME280;18731;42.830;24.390;2023-05-13T08:26:37;94950.56;;;17.74;45.88
32243;BME280;18731;42.830;24.390;2023-05-13T08:29:03;94999.34;;;18.34;42.48
32243;BME280;18731;42.830;24.390;2023-05-13T08:31:29;95007.06;;;18.36;40.84
32243;BME280;18731;42.830;24.390;2023-05-13T08:33:56;94998.88;;;18.85;42.44
32243;BME280;18731;42.830;24.390;2023-05-13T08:36:22;94993.72;;;19.43;41.05
32243;BME280;18731;42.830;24.390;2023-05-13T08:38:50;94997.78;;;19.60;39.92
32243;BME280;18731;42.830;24.390;2023-05-13T08:41:15;95003.00;;;19.79;40.68
32243;BME280;18731;42.830;24.390;2023-05-13T08:43:42;94999.22;;;19.91;39.37
32243;BME280;18731;42.830;24.390;2023-05-13T08:46:10;94980.66;;;20.44;44.08
32243;BME280;18731;42.830;24.390;2023-05-13T08:48:40;94979.28;;;20.79;43.06
32243;BME280;18731;42.830;24.390;2023-05-13T08:51:07;94996.44;;;20.97;40.28
32243;BME280;18731;42.830;24.390;2023-05-13T08:53:38;94990.31;;;21.18;38.40
32243;BME280;18731;42.830;24.390;2023-05-13T08:56:06;94983.25;;;20.92;40.91
32243;BME280;18731;42.830;24.390;2023-05-13T08:58:32;94993.47;;;21.27;41.73
32243;BME280;18731;42.830;24.390;2023-05-13T09:00:58;94993.78;;;21.11;41.07
32243;BME280;18731;42.830;24.390;2023-05-13T09:03:26;94992.34;;;20.59;39.98
32243;BME280;18731;42.830;24.390;2023-05-13T09:05:52;94994.19;;;20.41;41.53
32243;BME280;18731;42.830;24.390;2023-05-13T09:08:18;94995.22;;;20.26;43.06
32243;BME280;18731;42.830;24.390;2023-05-13T09:10:44;94989.66;;;20.04;43.52
32243;BME280;18731;42.830;24.390;2023-05-13T09:13:13;94974.94;;;19.57;43.26
32243;BME280;18731;42.830;24.390;2023-05-13T09:15:41;94973.53;;;19.34;44.19
32243;BME280;18731;42.830;24.390;2023-05-13T09:18:08;94956.81;;;19.24;44.89
32243;BME280;18731;42.830;24.390;2023-05-13T09:20:34;94969.41;;;19.91;44.41
32243;BME280;18731;42.830;24.390;2023-05-13T09:23:05;94929.06;;;19.75;42.71
32243;BME280;18731;42.830;24.390;2023-05-13T09:25:31;94967.34;;;20.29;42.55
32243;BME280;18731;42.830;24.390;2023-05-13T09:28:02;94913.34;;;19.99;42.22
32243;BME280;18731;42.830;24.390;2023-05-13T09:30:31;94961.88;;;20.18;43.56
32243;BME280;18731;42.830;24.390;2023-05-13T09:35:36;94971.00;;;20.50;41.73
32243;BME280;18731;42.830;24.390;2023-05-13T09:38:13;94965.53;;;19.88;42.14
32243;BME280;18731;42.830;24.390;2023-05-13T09:40:40;94975.56;;;19.84;43.23
32243;BME280;18731;42.830;24.390;2023-05-13T09:43:06;94927.09;;;19.32;42.86
32243;BME280;18731;42.830;24.390;2023-05-13T09:45:33;94966.13;;;19.68;44.33
32243;BME280;18731;42.830;24.390;2023-05-13T09:47:59;94979.66;;;19.64;43.43
32243;BME280;18731;42.830;24.390;2023-05-13T09:50:25;94975.41;;;19.30;43.01
32243;BME280;18731;42.830;24.390;2023-05-13T09:52:51;94983.34;;;19.49;42.50
32243;BME280;18731;42.830;24.390;2023-05-13T09:55:17;94981.72;;;19.81;42.49
32243;BME280;18731;42.830;24.390;2023-05-13T09:57:44;94984.09;;;19.86;44.60
32243;BME280;18731;42.830;24.390;2023-05-13T10:00:10;94984.19;;;20.01;42.96
32243;BME280;18731;42.830;24.390;2023-05-13T10:02:37;94986.63;;;20.13;44.03
32243;BME280;18731;42.830;24.390;2023-05-13T10:05:04;94968.13;;;20.29;41.73
32243;BME280;18731;42.830;24.390;2023-05-13T10:07:32;94975.88;;;20.27;39.91
32243;BME280;18731;42.830;24.390;2023-05-13T10:10:02;94962.34;;;20.31;44.09
32243;BME280;18731;42.830;24.390;2023-05-13T10:12:30;94973.06;;;20.78;41.52
32243;BME280;18731;42.830;24.390;2023-05-13T10:14:57;94969.31;;;21.04;40.38
32243;BME280;18731;42.830;24.390;2023-05-13T10:17:23;94977.13;;;21.16;39.19
32243;BME280;18731;42.830;24.390;2023-05-13T10:19:51;94949.34;;;20.58;40.36
32243;BME280;18731;42.830;24.390;2023-05-13T10:22:27;94973.66;;;20.40;40.45
32243;BME280;18731;42.830;24.390;2023-05-13T10:24:58;94979.63;;;20.12;41.28
32243;BME280;18731;42.830;24.390;2023-05-13T10:27:28;94983.06;;;20.05;41.63
32243;BME280;18731;42.830;24.390;2023-05-13T10:29:56;94992.25;;;19.90;41.84
32243;BME280;18731;42.830;24.390;2023-05-13T10:32:23;94986.22;;;20.11;43.29
32243;BME280;18731;42.830;24.390;2023-05-13T10:34:54;94984.94;;;19.98;42.08
32243;BME280;18731;42.830;24.390;2023-05-13T10:45:36;94970.00;;;19.30;43.05
32243;BME280;18731;42.830;24.390;2023-05-13T10:48:06;94971.63;;;19.38;43.68
32243;BME280;18731;42.830;24.390;2023-05-13T10:50:36;94965.13;;;19.46;44.64
32243;BME280;18731;42.830;24.390;2023-05-13T10:53:07;94963.06;;;19.32;43.68
32243;BME280;18731;42.830;24.390;2023-05-13T10:55:41;94958.56;;;19.47;45.91
32243;BME280;18731;42.830;24.390;2023-05-13T10:58:11;94961.41;;;19.57;45.58
32243;BME280;18731;42.830;24.390;2023-05-13T11:00:41;94969.22;;;19.66;43.43
32243;BME280;18731;42.830;24.390;2023-05-13T11:05:46;94969.72;;;19.79;43.12
32243;BME280;18731;42.830;24.390;2023-05-13T11:08:37;94893.69;;;19.13;42.92
32243;BME280;18731;42.830;24.390;2023-05-13T11:11:17;94981.22;;;19.32;44.48
32243;BME280;18731;42.830;24.390;2023-05-13T11:13:43;94969.97;;;19.26;45.07
32243;BME280;18731;42.830;24.390;2023-05-13T11:16:12;94985.50;;;19.70;45.35
32243;BME280;18731;42.830;24.390;2023-05-13T11:18:38;94983.28;;;19.82;46.04
32243;BME280;18731;42.830;24.390;2023-05-13T11:21:05;94988.88;;;20.04;45.78
32243;BME280;18731;42.830;24.390;2023-05-13T11:23:33;94981.81;;;20.47;43.73
32243;BME280;18731;42.830;24.390;2023-05-13T11:26:14;94996.88;;;21.13;43.49
32243;BME280;18731;42.830;24.390;2023-05-13T11:29:02;94992.78;;;21.62;40.50
32243;BME280;18731;42.830;24.390;2023-05-13T11:31:42;94986.56;;;21.58;39.54
32243;BME280;18731;42.830;24.390;2023-05-13T11:34:15;94983.78;;;21.30;39.70
32243;BME280;18731;42.830;24.390;2023-05-13T11:36:47;94981.44;;;21.28;40.00
32243;BME280;18731;42.830;24.390;2023-05-13T11:39:16;94990.38;;;21.29;38.90
32243;BME280;18731;42.830;24.390;2023-05-13T11:41:47;94998.03;;;21.05;39.04
32243;BME280;18731;42.830;24.390;2023-05-13T11:44:16;94992.28;;;20.48;40.16
32243;BME280;18731;42.830;24.390;2023-05-13T11:47:11;94994.28;;;20.04;41.34
32243;BME280;18731;42.830;24.390;2023-05-13T11:49:42;94997.34;;;19.99;43.36
32243;BME280;18731;42.830;24.390;2023-05-13T11:54:52;94990.50;;;19.31;43.24
32243;BME280;18731;42.830;24.390;2023-05-13T11:57:18;94992.84;;;19.32;43.27
32243;BME280;18731;42.830;24.390;2023-05-13T12:02:27;94983.94;;;19.32;43.64
32243;BME280;18731;42.830;24.390;2023-05-13T12:04:53;94987.44;;;19.32;46.36
32243;BME280;18731;42.830;24.390;2023-05-13T12:07:23;94988.16;;;19.29;43.18
32243;BME280;18731;42.830;24.390;2023-05-13T12:09:51;94994.28;;;19.22;45.42
32243;BME280;18731;42.830;24.390;2023-05-13T12:12:18;95001.19;;;19.16;46.14
32243;BME280;18731;42.830;24.390;2023-05-13T12:14:47;94995.91;;;18.63;46.89
32243;BME280;18731;42.830;24.390;2023-05-13T12:17:18;94999.47;;;18.45;47.20
32243;BME280;18731;42.830;24.390;2023-05-13T12:20:09;94999.47;;;18.45;47.60
32243;BME280;18731;42.830;24.390;2023-05-13T12:22:48;94998.09;;;18.28;48.14
32243;BME280;18731;42.830;24.390;2023-05-13T12:28:22;94992.66;;;18.02;53.16
32243;BME280;18731;42.830;24.390;2023-05-13T12:30:57;95008.50;;;18.03;56.22
32243;BME280;18731;42.830;24.390;2023-05-13T12:33:31;95003.16;;;17.84;54.51
32243;BME280;18731;42.830;24.390;2023-05-13T12:36:20;95002.88;;;17.66;58.82
32243;BME280;18731;42.830;24.390;2023-05-13T12:38:54;95017.19;;;17.28;57.66
32243;BME280;18731;42.830;24.390;2023-05-13T12:41:21;95021.97;;;17.15;58.86
32243;BME280;18731;42.830;24.390;2023-05-13T12:43:47;95021.13;;;16.92;61.82
32243;BME280;18731;42.830;24.390;2023-05-13T12:46:13;95018.28;;;16.85;62.77
32243;BME280;18731;42.830;24.390;2023-05-13T12:48:38;95034.47;;;16.85;64.42
32243;BME280;18731;42.830;24.390;2023-05-13T12:51:04;95048.84;;;16.73;69.07
32243;BME280;18731;42.830;24.390;2023-05-13T12:53:30;95045.75;;;16.55;71.60
32243;BME280;18731;42.830;24.390;2023-05-13T12:55:55;95037.44;;;16.45;69.45
32243;BME280;18731;42.830;24.390;2023-05-13T12:58:21;95039.47;;;16.32;70.49
32243;BME280;18731;42.830;24.390;2023-05-13T13:00:47;95056.41;;;16.32;71.03
32243;BME280;18731;42.830;24.390;2023-05-13T13:03:13;95053.56;;;16.10;72.38
32243;BME280;18731;42.830;24.390;2023-05-13T13:05:38;95054.09;;;15.99;74.02
32243;BME280;18731;42.830;24.390;2023-05-13T13:08:04;95046.88;;;15.88;75.64
32243;BME280;18731;42.830;24.390;2023-05-13T13:10:30;95055.81;;;15.92;76.07
32243;BME280;18731;42.830;24.390;2023-05-13T13:12:55;95054.53;;;15.86;75.93
32243;BME280;18731;42.830;24.390;2023-05-13T13:15:21;95061.63;;;15.78;78.01
32243;BME280;18731;42.830;24.390;2023-05-13T13:17:47;95057.91;;;15.67;78.22
32243;BME280;18731;42.830;24.390;2023-05-13T13:20:13;95054.56;;;15.58;78.10
32243;BME280;18731;42.830;24.390;2023-05-13T13:22:38;95066.47;;;15.44;77.38
32243;BME280;18731;42.830;24.390;2023-05-13T13:25:05;95071.72;;;15.25;78.01
32243;BME280;18731;42.830;24.390;2023-05-13T13:27:32;95063.16;;;15.35;80.07
32243;BME280;18731;42.830;24.390;2023-05-13T13:29:58;95027.19;;;15.12;81.05
32243;BME280;18731;42.830;24.390;2023-05-13T13:32:24;95065.91;;;15.23;80.99
32243;BME280;18731;42.830;24.390;2023-05-13T13:34:49;95068.25;;;15.25;80.02
32243;BME280;18731;42.830;24.390;2023-05-13T13:37:15;95090.94;;;15.39;80.51
32243;BME280;18731;42.830;24.390;2023-05-13T13:39:41;95071.47;;;15.30;81.32
32243;BME280;18731;42.830;24.390;2023-05-13T13:42:06;95069.47;;;15.27;81.52
32243;BME280;18731;42.830;24.390;2023-05-13T13:44:32;95092.69;;;15.48;80.65
32243;BME280;18731;42.830;24.390;2023-05-13T13:46:58;95068.69;;;15.27;82.02
32243;BME280;18731;42.830;24.390;2023-05-13T13:49:24;95100.88;;;15.51;82.19
32243;BME280;18731;42.830;24.390;2023-05-13T13:51:52;95101.41;;;15.57;80.22
32243;BME280;18731;42.830;24.390;2023-05-13T13:54:18;95064.19;;;15.59;79.61
32243;BME280;18731;42.830;24.390;2023-05-13T13:56:44;95044.88;;;15.41;80.13
32243;BME280;18731;42.830;24.390;2023-05-13T13:59:10;95083.25;;;15.66;80.81
32243;BME280;18731;42.830;24.390;2023-05-13T14:01:36;95068.47;;;15.48;81.50
32243;BME280;18731;42.830;24.390;2023-05-13T14:04:12;95081.47;;;15.58;81.55
32243;BME280;18731;42.830;24.390;2023-05-13T14:06:38;95066.56;;;15.48;79.93
32243;BME280;18731;42.830;24.390;2023-05-13T14:09:04;95060.31;;;15.44;78.42
32243;BME280;18731;42.830;24.390;2023-05-13T14:11:31;95066.22;;;15.50;78.83
32243;BME280;18731;42.830;24.390;2023-05-13T14:13:57;95026.03;;;14.97;80.73
32243;BME280;18731;42.830;24.390;2023-05-13T14:16:23;95078.44;;;15.31;79.99
32243;BME280;18731;42.830;24.390;2023-05-13T14:18:49;95062.28;;;15.31;80.37
32243;BME280;18731;42.830;24.390;2023-05-13T14:21:15;95077.59;;;15.43;79.22
32243;BME280;18731;42.830;24.390;2023-05-13T14:23:41;95076.41;;;15.28;79.32
32243;BME280;18731;42.830;24.390;2023-05-13T14:26:08;95076.88;;;15.30;80.64
32243;BME280;18731;42.830;24.390;2023-05-13T14:28:35;95069.72;;;15.22;78.61
32243;BME280;18731;42.830;24.390;2023-05-13T14:31:01;95031.94;;;15.03;79.71
32243;BME280;18731;42.830;24.390;2023-05-13T14:33:26;95072.13;;;15.39;79.92
32243;BME280;18731;42.830;24.390;2023-05-13T14:35:52;95055.03;;;15.48;79.96
32243;BME280;18731;42.830;24.390;2023-05-13T14:38:18;95023.94;;;15.34;80.35
32243;BME280;18731;42.830;24.390;2023-05-13T14:40:44;95071.88;;;15.72;79.66
32243;BME280;18731;42.830;24.390;2023-05-13T14:43:09;95060.16;;;15.81;78.78
32243;BME280;18731;42.830;24.390;2023-05-13T14:45:35;95057.72;;;15.91;79.53
32243;BME280;18731;42.830;24.390;2023-05-13T14:48:01;95050.09;;;15.93;77.44
32243;BME280;18731;42.830;24.390;2023-05-13T14:50:26;95051.47;;;16.19;78.58
32243;BME280;18731;42.830;24.390;2023-05-13T14:52:52;95066.63;;;16.43;77.03
32243;BME280;18731;42.830;24.390;2023-05-13T14:55:18;95059.22;;;16.71;74.86
32243;BME280;18731;42.830;24.390;2023-05-13T14:57:44;95047.53;;;16.83;73.98
32243;BME280;18731;42.830;24.390;2023-05-13T15:00:10;95051.94;;;17.10;72.52
32243;BME280;18731;42.830;24.390;2023-05-13T15:02:36;95059.00;;;17.38;72.18
32243;BME280;18731;42.830;24.390;2023-05-13T15:05:02;95037.59;;;17.25;70.49
32243;BME280;18731;42.830;24.390;2023-05-13T15:07:27;95017.16;;;17.05;74.90
32243;BME280;18731;42.830;24.390;2023-05-13T15:09:54;95041.91;;;17.11;73.59
32243;BME280;18731;42.830;24.390;2023-05-13T15:12:19;95047.47;;;16.63;74.93
32243;BME280;18731;42.830;24.390;2023-05-13T15:14:56;95034.53;;;16.88;71.44
32243;BME280;18731;42.830;24.390;2023-05-13T15:17:22;95034.31;;;16.97;73.51
32243;BME280;18731;42.830;24.390;2023-05-13T15:19:48;95039.00;;;17.00;74.42
32243;BME280;18731;42.830;24.390;2023-05-13T15:22:14;95019.84;;;17.05;74.43
32243;BME280;18731;42.830;24.390;2023-05-13T15:24:41;95034.03;;;17.02;74.30
32243;BME280;18731;42.830;24.390;2023-05-13T15:27:07;95035.47;;;16.96;74.40
32243;BME280;18731;42.830;24.390;2023-05-13T15:29:32;95030.34;;;17.10;72.88
32243;BME280;18731;42.830;24.390;2023-05-13T15:31:58;95010.63;;;16.87;72.87
32243;BME280;18731;42.830;24.390;2023-05-13T15:34:24;95015.44;;;16.78;74.58
32243;BME280;18731;42.830;24.390;2023-05-13T15:36:50;95034.25;;;16.74;72.49
32243;BME280;18731;42.830;24.390;2023-05-13T15:39:15;95034.06;;;16.32;74.50
32243;BME280;18731;42.830;24.390;2023-05-13T15:41:42;95030.94;;;16.30;76.24
32243;BME280;18731;42.830;24.390;2023-05-13T15:44:07;95032.22;;;16.36;77.15
32243;BME280;18731;42.830;24.390;2023-05-13T15:46:33;95012.63;;;16.20;77.78
32243;BME280;18731;42.830;24.390;2023-05-13T15:48:59;95015.59;;;16.15;78.21
32243;BME280;18731;42.830;24.390;2023-05-13T15:51:26;95042.97;;;16.17;77.71
32243;BME280;18731;42.830;24.390;2023-05-13T15:53:52;95011.53;;;15.89;77.30
32243;BME280;18731;42.830;24.390;2023-05-13T15:56:18;95047.31;;;16.05;77.54
32243;BME280;18731;42.830;24.390;2023-05-13T15:58:46;95003.81;;;15.72;77.53
32243;BME280;18731;42.830;24.390;2023-05-13T16:01:12;95037.59;;;15.85;78.17
32243;BME280;18731;42.830;24.390;2023-05-13T16:03:38;95049.22;;;15.89;78.24
32243;BME280;18731;42.830;24.390;2023-05-13T16:06:03;95048.34;;;15.85;78.92
32243;BME280;18731;42.830;24.390;2023-05-13T16:08:29;95059.19;;;15.73;79.06
32243;BME280;18731;42.830;24.390;2023-05-13T16:10:55;95016.41;;;15.40;79.09
32243;BME280;18731;42.830;24.390;2023-05-13T16:13:20;95057.03;;;15.63;80.21
32243;BME280;18731;42.830;24.390;2023-05-13T16:15:46;95045.06;;;15.48;80.83